Time;durP1;ratioP1;P1;durP2;ratioP2;P2;SDS_P1;SDS_P2;PMS_P1;PMS_P2;Temp;Humidity;BMP_temperature;BMP_pressure;BME280_temperature;BME280_humidity;BME280_pressure;Samples;Min_cycle;Max_cycle;Signal;HPM_P1;HPM_P2
2023/09/08 00:02:24;;;;;;;;;;;;;;;19.52;74.25;101614.13;5025134;28;20144;-64
2023/09/08 00:04:49;;;;;;;;;;;;;;;19.44;75.03;101622.94;5031787;28;19909;-64
2023/09/08 00:07:14;;;;;;;;;;;;;;;19.42;74.67;101605.31;5024258;28;19917;-64
2023/09/08 00:09:40;;;;;;;;;;;;;;;19.41;75.08;101607.09;5023974;28;19929;-64
2023/09/08 00:12:05;;;;;;;;;;;;;;;19.42;75.33;101614.16;5024683;28;19956;-64
2023/09/08 00:14:30;;;;;;;;;;;;;;;19.40;74.95;101615.91;5024739;28;19910;-64
2023/09/08 00:16:55;;;;;;;;;;;;;;;19.35;74.95;101616.78;5024541;28;20139;-64
2023/09/08 00:19:21;;;;;;;;;;;;;;;19.32;75.03;101614.13;5020622;28;19968;-64
2023/09/08 00:21:46;;;;;;;;;;;;;;;19.31;75.02;101615.91;5023881;28;20005;-64
2023/09/08 00:24:12;;;;;;;;;;;;;;;19.28;75.30;101615.91;5023915;28;20007;-64
2023/09/08 00:26:37;;;;;;;;;;;;;;;19.26;75.50;101613.28;5022199;28;20080;-64
2023/09/08 00:29:02;;;;;;;;;;;;;;;19.24;75.69;101619.44;5024136;28;20083;-64
2023/09/08 00:31:28;;;;;;;;;;;;;;;19.22;75.64;101621.19;5023049;28;19952;-64
2023/09/08 00:33:53;;;;;;;;;;;;;;;19.16;75.47;101621.19;5024166;28;20004;-64
2023/09/08 00:36:19;;;;;;;;;;;;;;;19.12;76.17;101615.03;5022840;28;20059;-64
2023/09/08 00:38:44;;;;;;;;;;;;;;;19.07;75.89;101617.69;5022570;28;19921;-64
2023/09/08 00:41:09;;;;;;;;;;;;;;;19.04;76.09;101619.44;5021748;28;19918;-64
2023/09/08 00:43:34;;;;;;;;;;;;;;;19.02;76.09;101623.84;5023479;28;19922;-64
2023/09/08 00:46:02;;;;;;;;;;;;;;;18.98;76.25;101620.28;5020336;28;19959;-64
2023/09/08 00:48:27;;;;;;;;;;;;;;;18.94;76.44;101614.16;5022100;28;20157;-64
2023/09/08 00:50:53;;;;;;;;;;;;;;;18.93;76.02;101615.00;5023821;28;19971;-64
2023/09/08 00:53:18;;;;;;;;;;;;;;;18.93;75.75;101609.72;5023940;28;19916;-64
2023/09/08 00:55:44;;;;;;;;;;;;;;;18.84;75.97;101614.97;5032489;28;20958;-64
2023/09/08 00:58:11;;;;;;;;;;;;;;;18.76;76.41;101614.06;5005938;28;19946;-64
2023/09/08 01:00:36;;;;;;;;;;;;;;;18.75;76.87;101615.81;5024081;28;19922;-64
2023/09/08 01:03:02;;;;;;;;;;;;;;;18.75;77.33;101617.59;5023849;28;19964;-64
2023/09/08 01:05:27;;;;;;;;;;;;;;;18.71;77.12;101614.06;5023593;28;20047;-64
2023/09/08 01:07:53;;;;;;;;;;;;;;;18.71;77.01;101615.81;5022971;28;19967;-64
2023/09/08 01:10:18;;;;;;;;;;;;;;;18.67;77.16;101612.31;5023722;28;19944;-64
2023/09/08 01:12:43;;;;;;;;;;;;;;;18.65;77.67;101607.88;5029697;28;19910;-64
2023/09/08 01:15:09;;;;;;;;;;;;;;;18.67;77.05;101611.41;5023819;28;19925;-64
2023/09/08 01:17:34;;;;;;;;;;;;;;;18.66;77.08;101610.53;5021501;28;20085;-64
2023/09/08 01:20:04;;;;;;;;;;;;;;;18.66;77.35;101615.81;5023571;28;20148;-64
2023/09/08 01:22:50;;;;;;;;;;;;;;;18.67;77.27;101611.41;5021566;28;19913;-64
2023/09/08 01:25:18;;;;;;;;;;;;;;;18.64;77.23;101611.41;5022870;28;20089;-64
2023/09/08 01:27:46;;;;;;;;;;;;;;;18.58;77.47;101615.81;5021031;28;19913;-64
2023/09/08 01:30:12;;;;;;;;;;;;;;;18.54;77.61;101611.38;5022674;28;19952;-64
2023/09/08 01:32:39;;;;;;;;;;;;;;;18.49;77.64;101615.75;5022578;28;19984;-64
2023/09/08 01:35:05;;;;;;;;;;;;;;;18.48;77.74;101621.03;5003797;28;19917;-64
2023/09/08 01:37:30;;;;;;;;;;;;;;;18.42;77.77;101613.97;5015933;28;19913;-64
2023/09/08 01:39:55;;;;;;;;;;;;;;;18.29;78.20;101622.72;5021025;28;19940;-64
2023/09/08 01:42:20;;;;;;;;;;;;;;;18.22;78.79;101621.84;5020839;28;19936;-64
2023/09/08 01:44:45;;;;;;;;;;;;;;;18.21;78.51;101618.28;5022135;28;19913;-64
2023/09/08 01:47:11;;;;;;;;;;;;;;;18.23;78.31;101624.47;5009951;28;19914;-64
2023/09/08 01:49:36;;;;;;;;;;;;;;;18.24;78.45;101620.94;5019721;28;20001;-64
2023/09/08 01:52:01;;;;;;;;;;;;;;;18.22;78.61;101624.47;5015172;28;19910;-64
2023/09/08 01:54:26;;;;;;;;;;;;;;;18.20;78.16;101616.53;5023107;28;19909;-64
2023/09/08 01:56:51;;;;;;;;;;;;;;;18.16;78.30;101616.50;5023193;28;20147;-64
2023/09/08 01:59:17;;;;;;;;;;;;;;;18.10;77.86;101614.72;5023626;28;19951;-64
2023/09/08 02:01:42;;;;;;;;;;;;;;;17.92;78.64;101612.00;5023264;28;19929;-64
2023/09/08 02:04:07;;;;;;;;;;;;;;;17.59;79.65;101610.88;5029898;28;19956;-64
2023/09/08 02:06:32;;;;;;;;;;;;;;;17.27;81.02;101608.91;5022173;28;19921;-64
2023/09/08 02:08:58;;;;;;;;;;;;;;;17.06;81.50;101609.56;5023142;28;20179;-63
2023/09/08 02:11:23;;;;;;;;;;;;;;;17.03;83.02;101615.69;5023231;28;19909;-64
2023/09/08 02:13:48;;;;;;;;;;;;;;;17.13;82.83;101611.41;5023173;28;19909;-63
2023/09/08 02:16:14;;;;;;;;;;;;;;;17.25;82.36;101610.63;5021722;28;19932;-63
2023/09/08 02:18:39;;;;;;;;;;;;;;;17.33;82.45;101612.44;5022809;28;20219;-64
2023/09/08 02:21:04;;;;;;;;;;;;;;;17.40;82.13;101610.75;5022908;28;20072;-64
2023/09/08 02:23:29;;;;;;;;;;;;;;;17.47;82.24;101617.81;5021439;28;19909;-64
2023/09/08 02:25:55;;;;;;;;;;;;;;;17.51;81.53;101606.44;5021743;28;20151;-63
2023/09/08 02:28:20;;;;;;;;;;;;;;;17.56;81.36;101602.06;5022295;28;19944;-63
2023/09/08 02:30:45;;;;;;;;;;;;;;;17.59;81.12;101600.34;5022020;28;20126;-63
2023/09/08 02:33:10;;;;;;;;;;;;;;;17.59;81.13;101600.34;5025353;28;19964;-63
2023/09/08 02:35:38;;;;;;;;;;;;;;;17.58;80.80;101598.56;5025179;28;19925;-64
2023/09/08 02:38:03;;;;;;;;;;;;;;;17.57;81.20;101595.06;5026134;28;20239;-63
2023/09/08 02:40:28;;;;;;;;;;;;;;;17.54;81.53;101593.28;5024621;28;20109;-64
2023/09/08 02:42:54;;;;;;;;;;;;;;;17.48;82.45;101600.25;5007929;28;19952;-64
2023/09/08 02:45:19;;;;;;;;;;;;;;;17.48;82.43;101602.88;5025852;28;19909;-63
2023/09/08 02:47:44;;;;;;;;;;;;;;;17.47;81.40;101601.16;5025072;28;20202;-64
2023/09/08 02:50:09;;;;;;;;;;;;;;;17.38;82.05;101601.97;5007806;28;20166;-64
2023/09/08 02:52:34;;;;;;;;;;;;;;;17.29;82.62;101601.88;5024867;28;19914;-64
2023/09/08 02:54:59;;;;;;;;;;;;;;;17.28;83.01;101606.28;5026277;28;19916;-64
2023/09/08 02:57:25;;;;;;;;;;;;;;;17.32;82.88;101601.91;5024003;28;20063;-64
2023/09/08 02:59:51;;;;;;;;;;;;;;;17.34;82.62;101601.03;5024587;28;19959;-64
2023/09/08 03:02:16;;;;;;;;;;;;;;;17.38;83.03;101601.97;5025014;28;19920;-64
2023/09/08 03:04:41;;;;;;;;;;;;;;;17.39;82.76;101603.69;5025494;28;19915;-64
2023/09/08 03:07:06;;;;;;;;;;;;;;;17.41;82.71;101598.44;5024223;28;19944;-64
2023/09/08 03:09:33;;;;;;;;;;;;;;;17.41;82.76;101601.97;5024935;28;19920;-64
2023/09/08 03:11:58;;;;;;;;;;;;;;;17.41;82.67;101601.97;5025182;28;19913;-64
2023/09/08 03:14:24;;;;;;;;;;;;;;;17.39;82.18;101601.06;5025982;28;19964;-64
2023/09/08 03:16:49;;;;;;;;;;;;;;;17.39;81.82;101601.06;5021728;28;20071;-63
2023/09/08 03:19:14;;;;;;;;;;;;;;;17.35;81.74;101601.91;5024682;28;19920;-64
2023/09/08 03:21:39;;;;;;;;;;;;;;;17.29;82.05;101596.59;5021303;28;19914;-64
2023/09/08 03:24:05;;;;;;;;;;;;;;;17.29;82.32;101601.88;5024967;28;20186;-63
2023/09/08 03:26:30;;;;;;;;;;;;;;;17.30;82.74;101607.16;5021887;28;19914;-63
2023/09/08 03:28:55;;;;;;;;;;;;;;;17.29;82.85;101602.78;5025222;28;19917;-63
2023/09/08 03:31:20;;;;;;;;;;;;;;;17.25;82.69;101600.09;5022490;28;19956;-64
2023/09/08 03:33:46;;;;;;;;;;;;;;;17.20;82.01;101598.28;5022217;28;19929;-63
2023/09/08 03:36:11;;;;;;;;;;;;;;;17.13;82.20;101593.88;5024790;28;19913;-63
2023/09/08 03:38:37;;;;;;;;;;;;;;;16.96;82.13;101587.53;5024928;28;19910;-63
2023/09/08 03:41:02;;;;;;;;;;;;;;;16.84;82.66;101593.53;5022768;28;19959;-63
2023/09/08 03:43:28;;;;;;;;;;;;;;;16.73;83.25;101590.81;5023106;28;19913;-63
2023/09/08 03:45:53;;;;;;;;;;;;;;;16.62;83.71;101592.44;5023822;28;19914;-64
2023/09/08 03:48:18;;;;;;;;;;;;;;;16.58;84.67;101595.91;5024493;28;20055;-63
2023/09/08 03:50:45;;;;;;;;;;;;;;;16.59;84.53;101584.53;5021549;28;19943;-64
2023/09/08 03:53:11;;;;;;;;;;;;;;;16.63;84.75;101581.94;5025315;28;19916;-63
2023/09/08 03:55:36;;;;;;;;;;;;;;;16.67;84.50;101575.84;5013360;28;19988;-64
2023/09/08 03:58:01;;;;;;;;;;;;;;;16.71;84.34;101587.28;5024820;28;19920;-63
2023/09/08 04:00:26;;;;;;;;;;;;;;;16.73;84.48;101582.94;5025415;28;19921;-63
2023/09/08 04:02:52;;;;;;;;;;;;;;;16.76;84.56;101580.31;5027164;28;19916;-63
2023/09/08 04:05:17;;;;;;;;;;;;;;;16.78;84.35;101578.56;5024875;28;19937;-63
2023/09/08 04:07:43;;;;;;;;;;;;;;;16.79;83.86;101580.34;5024828;28;19926;-63
2023/09/08 04:10:09;;;;;;;;;;;;;;;16.81;84.39;101580.34;5007353;28;19910;-63
2023/09/08 04:12:34;;;;;;;;;;;;;;;16.80;84.45;101576.84;5024495;28;19952;-63
2023/09/08 04:14:59;;;;;;;;;;;;;;;16.78;84.56;101572.44;5024381;28;19948;-63
2023/09/08 04:17:24;;;;;;;;;;;;;;;16.74;84.72;101568.00;5024661;28;19909;-63
2023/09/08 04:19:49;;;;;;;;;;;;;;;16.69;84.21;101581.13;5028829;28;20139;-63
2023/09/08 04:22:15;;;;;;;;;;;;;;;16.68;84.95;101588.16;5023213;28;19910;-63
2023/09/08 04:24:40;;;;;;;;;;;;;;;16.68;84.96;101577.63;5023261;28;19913;-63
2023/09/08 04:27:05;;;;;;;;;;;;;;;16.67;85.06;101574.97;5022229;28;20164;-63
2023/09/08 04:29:30;;;;;;;;;;;;;;;16.66;85.20;101567.94;5023165;28;19913;-63
2023/09/08 04:31:55;;;;;;;;;;;;;;;16.66;85.22;101562.69;5022233;28;20210;-63
2023/09/08 04:34:21;;;;;;;;;;;;;;;16.67;84.47;101573.22;5019426;28;19948;-63
2023/09/08 04:36:46;;;;;;;;;;;;;;;16.68;84.70;101574.09;5024421;28;19913;-63
2023/09/08 04:39:11;;;;;;;;;;;;;;;16.64;84.82;101570.56;5023902;28;19916;-63
2023/09/08 04:41:37;;;;;;;;;;;;;;;16.63;84.75;101570.53;5022018;28;19963;-63
2023/09/08 04:44:02;;;;;;;;;;;;;;;16.56;84.84;101571.34;5023995;28;19920;-63
2023/09/08 04:46:27;;;;;;;;;;;;;;;16.51;85.31;101573.91;5024139;28;19983;-63
2023/09/08 04:48:52;;;;;;;;;;;;;;;16.50;85.35;101570.41;5022226;28;19913;-63
2023/09/08 04:51:17;;;;;;;;;;;;;;;16.48;85.08;101574.78;5023534;28;19917;-63
2023/09/08 04:53:42;;;;;;;;;;;;;;;16.47;85.29;101575.63;5017455;28;19909;-63
2023/09/08 04:56:08;;;;;;;;;;;;;;;16.45;85.03;101579.09;5021421;28;20045;-64
2023/09/08 04:58:33;;;;;;;;;;;;;;;16.45;85.20;101579.09;5022117;28;19952;-63
2023/09/08 05:00:58;;;;;;;;;;;;;;;16.43;85.58;101580.84;5023407;28;19913;-63
2023/09/08 05:03:24;;;;;;;;;;;;;;;16.43;85.24;101579.09;5022522;28;20143;-63
2023/09/08 05:05:49;;;;;;;;;;;;;;;16.44;85.94;101587.88;5024441;28;19968;-63
2023/09/08 05:08:14;;;;;;;;;;;;;;;16.41;85.40;101582.56;5022585;28;19992;-63
2023/09/08 05:10:39;;;;;;;;;;;;;;;16.37;86.30;101583.41;5023436;28;19920;-63
2023/09/08 05:13:05;;;;;;;;;;;;;;;16.34;86.47;101585.13;5022293;28;20123;-63
2023/09/08 05:15:31;;;;;;;;;;;;;;;16.33;86.04;101590.38;5022914;28;19921;-63
2023/09/08 05:17:56;;;;;;;;;;;;;;;16.30;86.02;101585.94;5022766;28;19948;-63
2023/09/08 05:20:21;;;;;;;;;;;;;;;16.31;86.44;101590.34;5023483;28;19914;-63
2023/09/08 05:22:46;;;;;;;;;;;;;;;16.30;86.25;101591.22;5020210;28;19916;-63
2023/09/08 05:25:12;;;;;;;;;;;;;;;16.29;86.89;101594.72;5022438;28;20209;-63
2023/09/08 05:27:37;;;;;;;;;;;;;;;16.28;87.07;101597.31;5022749;28;19992;-63
2023/09/08 05:30:03;;;;;;;;;;;;;;;16.30;87.23;101588.59;5014330;28;19961;-63
2023/09/08 05:32:28;;;;;;;;;;;;;;;16.29;86.64;101584.22;5018583;28;19916;-63
2023/09/08 05:34:53;;;;;;;;;;;;;;;16.30;87.01;101587.72;5022671;28;19915;-63
2023/09/08 05:37:18;;;;;;;;;;;;;;;16.31;87.52;101589.50;5021829;28;19917;-63
2023/09/08 05:39:44;;;;;;;;;;;;;;;16.31;87.56;101595.63;5021927;28;19937;-63
2023/09/08 05:42:09;;;;;;;;;;;;;;;16.31;87.50;101593.00;5022021;28;19913;-63
2023/09/08 05:44:35;;;;;;;;;;;;;;;16.31;88.07;101603.50;5021801;28;20473;-63
2023/09/08 05:47:00;;;;;;;;;;;;;;;16.34;87.89;101594.78;4999317;28;20025;-63
2023/09/08 05:49:25;;;;;;;;;;;;;;;16.38;87.36;101598.31;5022475;28;19925;-63
2023/09/08 05:51:50;;;;;;;;;;;;;;;16.40;88.11;101597.47;5016254;28;20163;-63
2023/09/08 05:54:16;;;;;;;;;;;;;;;16.42;88.26;101602.75;5021682;28;19928;-63
2023/09/08 05:56:41;;;;;;;;;;;;;;;16.42;88.59;101600.13;5022641;28;19937;-63
2023/09/08 05:59:06;;;;;;;;;;;;;;;16.43;88.32;101608.03;5023084;28;19910;-63
2023/09/08 06:01:31;;;;;;;;;;;;;;;16.44;88.53;101604.53;5027604;28;19910;-63
2023/09/08 06:03:56;;;;;;;;;;;;;;;16.47;88.87;101599.31;5026250;28;19945;-63
2023/09/08 06:06:22;;;;;;;;;;;;;;;16.47;88.53;101604.56;5022503;28;19930;-63
2023/09/08 06:08:47;;;;;;;;;;;;;;;16.50;89.03;101599.34;5026567;28;19909;-63
2023/09/08 06:11:12;;;;;;;;;;;;;;;16.53;88.96;101601.13;5027070;28;19918;-63
2023/09/08 06:13:37;;;;;;;;;;;;;;;16.57;89.34;101604.66;5028132;28;19960;-63
2023/09/08 06:16:03;;;;;;;;;;;;;;;16.60;89.40;101609.97;5026140;28;19914;-63
2023/09/08 06:18:29;;;;;;;;;;;;;;;16.61;89.47;101611.72;5030843;28;19909;-63
2023/09/08 06:20:54;;;;;;;;;;;;;;;16.63;90.02;101608.25;5026981;28;19910;-63
2023/09/08 06:23:20;;;;;;;;;;;;;;;16.65;89.63;101608.28;5026766;28;19968;-63
2023/09/08 06:25:45;;;;;;;;;;;;;;;16.67;89.84;101615.31;5024981;28;19914;-63
2023/09/08 06:28:10;;;;;;;;;;;;;;;16.71;89.72;101612.72;5026078;28;19913;-63
2023/09/08 06:30:35;;;;;;;;;;;;;;;16.75;89.99;101619.78;5025328;28;19989;-63
2023/09/08 06:33:00;;;;;;;;;;;;;;;16.77;89.96;101616.31;5025430;28;19920;-63
2023/09/08 06:35:26;;;;;;;;;;;;;;;16.82;90.00;101622.47;5024878;28;19960;-63
2023/09/08 06:37:52;;;;;;;;;;;;;;;16.86;90.15;101616.38;5025283;28;19921;-63
2023/09/08 06:40:17;;;;;;;;;;;;;;;16.90;90.73;101619.97;5022654;28;20127;-63
2023/09/08 06:42:42;;;;;;;;;;;;;;;16.94;90.51;101610.34;5026679;28;19925;-63
2023/09/08 06:45:08;;;;;;;;;;;;;;;16.97;90.88;101619.16;5018235;28;19920;-63
2023/09/08 06:47:33;;;;;;;;;;;;;;;17.00;91.09;101616.56;5025193;28;19976;-63
2023/09/08 06:49:58;;;;;;;;;;;;;;;17.02;90.54;101617.44;5020013;28;19929;-64
2023/09/08 06:52:23;;;;;;;;;;;;;;;17.07;90.91;101617.50;5022721;28;20111;-63
2023/09/08 06:54:48;;;;;;;;;;;;;;;17.12;91.09;101618.44;5023390;28;19944;-63
2023/09/08 06:57:13;;;;;;;;;;;;;;;17.20;91.01;101622.00;5026145;28;19948;-63
2023/09/08 06:59:39;;;;;;;;;;;;;;;17.26;90.65;101628.19;5024059;28;19945;-63
2023/09/08 07:02:04;;;;;;;;;;;;;;;17.33;91.25;101630.00;5024558;28;19960;-63
2023/09/08 07:04:29;;;;;;;;;;;;;;;17.41;91.45;101632.69;5022492;28;19913;-63
2023/09/08 07:06:54;;;;;;;;;;;;;;;17.43;91.00;101629.22;5025228;28;19918;-63
2023/09/08 07:09:20;;;;;;;;;;;;;;;17.50;90.48;101631.03;5024958;28;19917;-63
2023/09/08 07:11:45;;;;;;;;;;;;;;;17.58;90.84;101633.69;5019391;28;20151;-63
2023/09/08 07:14:10;;;;;;;;;;;;;;;17.66;91.61;101628.50;5023386;28;19920;-63
2023/09/08 07:16:35;;;;;;;;;;;;;;;17.73;90.72;101632.94;5022471;28;19926;-63
2023/09/08 07:19:01;;;;;;;;;;;;;;;17.81;90.94;101636.50;5023660;28;19921;-64
2023/09/08 07:21:26;;;;;;;;;;;;;;;17.87;90.75;101633.91;5025632;28;19957;-63
2023/09/08 07:23:52;;;;;;;;;;;;;;;17.93;90.72;101633.13;5023787;28;19929;-63
2023/09/08 07:26:17;;;;;;;;;;;;;;;17.97;90.53;101634.88;5020790;28;19921;-63
2023/09/08 07:28:43;;;;;;;;;;;;;;;18.04;90.03;101635.78;5022751;28;20037;-64
2023/09/08 07:31:09;;;;;;;;;;;;;;;18.14;90.93;101631.47;5024520;28;19920;-63
2023/09/08 07:33:34;;;;;;;;;;;;;;;18.21;90.84;101633.25;5015160;28;19928;-63
2023/09/08 07:36:03;;;;;;;;;;;;;;;18.29;90.47;101630.63;5016539;28;19941;-64
2023/09/08 07:38:28;;;;;;;;;;;;;;;18.34;90.64;101636.81;5014372;28;19926;-63
2023/09/08 07:40:53;;;;;;;;;;;;;;;18.41;90.17;101638.63;5019260;28;19929;-64
2023/09/08 07:43:19;;;;;;;;;;;;;;;18.52;91.89;101634.22;5013197;28;19936;-64
2023/09/08 07:45:44;;;;;;;;;;;;;;;18.66;90.57;101630.78;5017763;28;19922;-64
2023/09/08 07:48:09;;;;;;;;;;;;;;;18.73;90.71;101628.16;5022394;28;20012;-65
2023/09/08 07:50:34;;;;;;;;;;;;;;;18.82;90.34;101624.63;5024151;28;20144;-64
2023/09/08 07:52:59;;;;;;;;;;;;;;;18.92;91.44;101629.09;5022213;28;19929;-64
2023/09/08 07:55:28;;;;;;;;;;;;;;;19.04;91.39;101627.34;5022189;28;20076;-64
2023/09/08 07:57:54;;;;;;;;;;;;;;;19.16;91.24;101627.38;5019708;28;19992;-64
2023/09/08 08:00:19;;;;;;;;;;;;;;;19.24;90.22;101628.25;5020438;28;19929;-64
2023/09/08 08:02:46;;;;;;;;;;;;;;;19.40;91.93;101620.31;5022620;28;19929;-64
2023/09/08 08:05:11;;;;;;;;;;;;;;;19.63;91.06;101617.66;5019109;28;19945;-64
2023/09/08 08:07:36;;;;;;;;;;;;;;;19.89;90.15;101612.34;5024755;28;19928;-65
2023/09/08 08:10:01;;;;;;;;;;;;;;;20.06;89.77;101617.56;5024367;28;19937;-65
2023/09/08 08:12:27;;;;;;;;;;;;;;;20.22;91.23;101614.84;5023989;28;20170;-65
2023/09/08 08:14:52;;;;;;;;;;;;;;;20.39;90.38;101617.44;5024790;28;19913;-65
2023/09/08 08:17:19;;;;;;;;;;;;;;;20.57;91.22;101616.47;5027453;28;19920;-65
2023/09/08 08:19:44;;;;;;;;;;;;;;;20.77;90.19;101616.38;5025021;28;19948;-65
2023/09/08 08:22:09;;;;;;;;;;;;;;;20.99;88.53;101619.75;5023164;28;19918;-65
2023/09/08 08:24:34;;;;;;;;;;;;;;;21.24;88.65;101625.75;5024559;28;19968;-65
2023/09/08 08:27:01;;;;;;;;;;;;;;;21.47;88.17;101627.31;5024519;28;20606;-65
2023/09/08 08:29:26;;;;;;;;;;;;;;;21.67;86.35;101628.03;5023097;28;19925;-65
2023/09/08 08:31:52;;;;;;;;;;;;;;;21.93;86.10;101629.53;5017597;28;20198;-65
2023/09/08 08:34:17;;;;;;;;;;;;;;;22.18;85.90;101623.94;5023732;28;19940;-65
2023/09/08 08:36:42;;;;;;;;;;;;;;;;;;5023407;28;19921;-66
2023/09/08 08:39:07;;;;;;;;;;;;;;;22.62;84.47;101618.97;5022812;28;20190;-66
2023/09/08 08:41:37;;;;;;;;;;;;;;;22.80;82.86;101624.03;5021512;28;19948;-66
2023/09/08 08:44:03;;;;;;;;;;;;;;;23.01;82.16;101625.44;5005925;28;20150;-66
2023/09/08 08:46:28;;;;;;;;;;;;;;;23.20;81.33;101627.84;5024071;28;19925;-66
2023/09/08 08:48:54;;;;;;;;;;;;;;;23.40;80.76;101632.84;5023423;28;20059;-66
2023/09/08 08:51:22;;;;;;;;;;;;;;;23.57;80.54;101622.78;5022429;28;19913;-66
2023/09/08 08:53:48;;;;;;;;;;;;;;;23.77;80.63;101622.41;5021732;28;19929;-66
2023/09/08 08:56:13;;;;;;;;;;;;;;;23.90;79.35;101625.75;5023510;28;20087;-66
2023/09/08 08:58:39;;;;;;;;;;;;;;;24.03;79.15;101620.16;5023188;28;19914;-66
2023/09/08 09:01:06;;;;;;;;;;;;;;;24.16;78.45;101620.78;5023347;28;20060;-66
2023/09/08 09:03:31;;;;;;;;;;;;;;;24.28;78.13;101610.75;5022549;28;19913;-67
2023/09/08 09:05:56;;;;;;;;;;;;;;;24.37;74.15;101615.00;5020755;28;19992;-67
2023/09/08 09:08:23;;;;;;;;;;;;;;;24.55;77.28;101611.06;5022329;28;19949;-67
2023/09/08 09:10:48;;;;;;;;;;;;;;;24.72;76.40;101615.16;5021878;28;20202;-67
2023/09/08 09:13:14;;;;;;;;;;;;;;;24.85;75.29;101615.75;5022882;28;19960;-67
2023/09/08 09:15:40;;;;;;;;;;;;;;;24.97;74.10;101612.81;5020808;28;19920;-67
2023/09/08 09:18:06;;;;;;;;;;;;;;;25.12;72.27;101615.06;5023920;28;19913;-67
2023/09/08 09:20:31;;;;;;;;;;;;;;;25.23;73.29;101619.25;5020993;28;19960;-67
2023/09/08 09:22:56;;;;;;;;;;;;;;;25.42;74.53;101620.59;5023090;28;19917;-67
2023/09/08 09:25:25;;;;;;;;;;;;;;;25.65;73.23;101617.31;5022059;28;20114;-67
2023/09/08 09:27:51;;;;;;;;;;;;;;;25.80;72.06;101613.31;5022517;28;19913;-67
2023/09/08 09:30:18;;;;;;;;;;;;;;;25.91;71.07;101622.81;5022832;28;19928;-67
2023/09/08 09:32:44;;;;;;;;;;;;;;;26.03;70.07;101610.03;5018685;28;19996;-67
2023/09/08 09:35:09;;;;;;;;;;;;;;;26.14;69.32;101612.41;5022057;28;19921;-67
2023/09/08 09:37:35;;;;;;;;;;;;;;;26.25;67.07;101619.22;5021781;28;19913;-67
2023/09/08 09:40:01;;;;;;;;;;;;;;;26.36;68.95;101612.63;5022528;28;19921;-67
2023/09/08 09:42:27;;;;;;;;;;;;;;;26.44;67.48;101607.03;5020865;28;19932;-67
2023/09/08 09:44:52;;;;;;;;;;;;;;;26.53;69.76;101609.47;5023831;28;20136;-67
2023/09/08 09:47:18;;;;;;;;;;;;;;;26.64;68.50;101608.25;5021976;28;19919;-67
2023/09/08 09:49:44;;;;;;;;;;;;;;;26.76;67.78;101607.88;5022229;28;19960;-67
2023/09/08 09:52:12;;;;;;;;;;;;;;;26.96;67.34;101606.34;5019138;28;19914;-67
2023/09/08 09:54:37;;;;;;;;;;;;;;;27.14;68.08;101610.19;5022402;28;19929;-67
2023/09/08 09:57:03;;;;;;;;;;;;;;;27.24;68.08;101609.84;5021946;28;19933;-67
2023/09/08 09:59:28;;;;;;;;;;;;;;;27.32;66.86;101606.03;5020306;28;19909;-68
2023/09/08 10:01:53;;;;;;;;;;;;;;;27.47;66.89;101607.34;5021074;28;20139;-68
2023/09/08 10:04:19;;;;;;;;;;;;;;;27.66;64.55;101604.88;5019386;28;19924;-68
2023/09/08 10:06:44;;;;;;;;;;;;;;;27.80;65.95;101605.25;5021315;28;19928;-68
2023/09/08 10:09:13;;;;;;;;;;;;;;;27.89;65.03;101602.22;5022612;28;19952;-68
2023/09/08 10:11:44;;;;;;;;;;;;;;;28.07;65.18;101610.56;5022359;28;19951;-68
2023/09/08 10:14:11;;;;;;;;;;;;;;;28.17;64.96;101600.34;5017853;28;20018;-68
2023/09/08 10:16:38;;;;;;;;;;;;;;;28.27;64.40;101605.31;5018354;28;20132;-68
2023/09/08 10:19:05;;;;;;;;;;;;;;;28.38;63.40;101604.00;5021596;28;20151;-68
2023/09/08 10:21:32;;;;;;;;;;;;;;;28.43;64.07;101604.69;5022107;28;20163;-68
2023/09/08 10:24:01;;;;;;;;;;;;;;;28.45;61.85;101597.47;5022534;28;19977;-68
2023/09/08 10:26:28;;;;;;;;;;;;;;;28.48;64.52;101600.03;5021344;28;19929;-68
2023/09/08 10:28:55;;;;;;;;;;;;;;;28.62;64.53;101600.38;5022216;28;19960;-68
2023/09/08 10:31:21;;;;;;;;;;;;;;;28.78;63.66;101606.00;5022299;28;20071;-68
2023/09/08 10:33:47;;;;;;;;;;;;;;;28.91;63.87;101605.47;5021231;28;19921;-68
2023/09/08 10:36:12;;;;;;;;;;;;;;;29.05;62.89;101604.91;5021339;28;19925;-68
2023/09/08 10:38:38;;;;;;;;;;;;;;;29.20;61.04;101604.28;5021126;28;20139;-68
2023/09/08 10:41:15;;;;;;;;;;;;;;;29.22;61.90;101605.09;5004802;28;20226;-68
2023/09/08 10:43:43;;;;;;;;;;;;;;;29.30;60.46;101602.97;5017335;28;20680;-68
2023/09/08 10:46:09;;;;;;;;;;;;;;;29.34;61.08;101603.69;5016466;28;19913;-68
2023/09/08 10:48:44;;;;;;;;;;;;;;;29.54;59.66;101600.13;5022091;28;19920;-68
2023/09/08 10:51:13;;;;;;;;;;;;;;;29.63;60.83;101597.06;5022412;28;20075;-68
2023/09/08 10:53:39;;;;;;;;;;;;;;;29.59;60.56;101599.94;5022996;28;19921;-68
2023/09/08 10:56:04;;;;;;;;;;;;;;;29.57;59.70;101591.94;5026182;28;19909;-68
2023/09/08 10:58:38;;;;;;;;;;;;;;;29.67;61.29;101595.09;5025116;28;19977;-68
2023/09/08 11:01:04;;;;;;;;;;;;;;;29.64;61.36;101595.22;5008145;28;19914;-68
2023/09/08 11:03:39;;;;;;;;;;;;;;;29.71;60.90;101595.84;5024683;28;19917;-68
2023/09/08 11:06:04;;;;;;;;;;;;;;;29.70;59.04;101599.47;5023747;28;19913;-68
2023/09/08 11:08:30;;;;;;;;;;;;;;;29.69;61.70;101597.72;5025426;28;20134;-68
2023/09/08 11:10:55;;;;;;;;;;;;;;;29.81;61.73;101589.09;5025335;28;19981;-68
2023/09/08 11:13:20;;;;;;;;;;;;;;;29.91;58.76;101593.16;5021426;28;19940;-68
2023/09/08 11:15:46;;;;;;;;;;;;;;;29.82;59.23;101591.75;5006006;28;19965;-68
2023/09/08 11:18:11;;;;;;;;;;;;;;;29.90;59.85;101594.09;5026209;28;19914;-68
2023/09/08 11:20:37;;;;;;;;;;;;;;;29.89;59.08;101594.16;5024472;28;19918;-68
2023/09/08 11:23:04;;;;;;;;;;;;;;;30.04;59.94;101596.16;5025553;28;19918;-68
2023/09/08 11:25:30;;;;;;;;;;;;;;;30.19;58.07;101586.47;5024265;28;19947;-67
2023/09/08 11:27:56;;;;;;;;;;;;;;;30.30;59.42;101591.31;5024846;28;20004;-67
2023/09/08 11:30:22;;;;;;;;;;;;;;;30.58;57.35;101587.38;5025056;28;19917;-67
2023/09/08 11:32:47;;;;;;;;;;;;;;;30.72;58.29;101589.34;5025539;28;19914;-67
2023/09/08 11:35:13;;;;;;;;;;;;;;;30.71;58.33;101587.63;5023445;28;20044;-67
2023/09/08 11:37:40;;;;;;;;;;;;;;;30.79;57.04;101585.41;5023428;28;20098;-67
2023/09/08 11:40:14;;;;;;;;;;;;;;;30.83;58.20;101581.63;5022520;28;19929;-67
2023/09/08 11:42:46;;;;;;;;;;;;;;;30.80;57.63;101582.66;5024285;28;20155;-67
2023/09/08 11:45:17;;;;;;;;;;;;;;;30.87;58.31;101577.84;5024830;28;19940;-67
2023/09/08 11:47:43;;;;;;;;;;;;;;;31.04;57.53;101582.41;5023783;28;20067;-67
2023/09/08 11:50:11;;;;;;;;;;;;;;;31.06;56.64;101580.50;5025241;28;20174;-67
2023/09/08 11:52:36;;;;;;;;;;;;;;;31.09;56.37;101580.34;5024688;28;19909;-67
2023/09/08 11:55:02;;;;;;;;;;;;;;;31.25;57.42;101583.09;5023797;28;19914;-67
2023/09/08 11:57:27;;;;;;;;;;;;;;;31.41;56.85;101571.53;5007075;28;20214;-67
2023/09/08 11:59:53;;;;;;;;;;;;;;;31.52;54.52;101578.09;5032240;28;19936;-67
2023/09/08 12:02:18;;;;;;;;;;;;;;;31.39;54.82;101583.25;5024855;28;19925;-67
2023/09/08 12:04:44;;;;;;;;;;;;;;;31.53;54.81;101582.53;5024040;28;19981;-67
2023/09/08 12:07:15;;;;;;;;;;;;;;;31.70;55.31;101583.47;5024545;28;19913;-67
2023/09/08 12:09:40;;;;;;;;;;;;;;;31.76;54.51;101577.75;5025210;28;20241;-67
2023/09/08 12:12:10;;;;;;;;;;;;;;;31.64;54.49;101573.03;5023353;28;20143;-67
2023/09/08 12:14:40;;;;;;;;;;;;;;;31.60;54.67;101571.47;5024577;28;19976;-67
2023/09/08 12:17:07;;;;;;;;;;;;;;;31.68;55.26;101569.22;5027820;28;19948;-67
2023/09/08 12:19:32;;;;;;;;;;;;;;;31.95;54.13;101566.84;5024260;28;19909;-67
2023/09/08 12:22:00;;;;;;;;;;;;;;;32.04;54.10;101573.56;5024947;28;19913;-67
2023/09/08 12:24:44;;;;;;;;;;;;;;;31.95;53.79;101571.34;5024594;28;20139;-67
2023/09/08 12:27:09;;;;;;;;;;;;;;;32.02;53.03;101573.66;5022946;28;19955;-67
2023/09/08 12:29:34;;;;;;;;;;;;;;;32.08;49.99;101570.59;5024137;28;19933;-67
2023/09/08 12:31:59;;;;;;;;;;;;;;;32.18;51.53;101570.09;5021975;28;19926;-67